METAR Data
IDs: Format: Raw Decoded Include TAF

Data at: 0559 UTC 03 Jul 2022

METAR for:KIKK (Kankakee Arpt, IL, US)
Text:KIKK 030519Z AUTO 00000KT 10SM CLR 17/15 A3009 RMK AO2
Temperature: 17.0°C ( 63°F)
Dewpoint: 15.0°C ( 59°F) [RH = 88%]
Pressure (altimeter):30.09 inches Hg (1019.0 mb)
Winds:calm
Visibility:10 or more sm (16+ km)
Ceiling:at least 12,000 feet AGL
Clouds:sky clear below 12,000 feet AGL
QC Flag:automated observation with no human augmentation

TAF for:KIKK (Kankakee Arpt, IL, US)
Text:No data found